Flight Track Log - Related Links

Times and Time Zones

All times are in EDT time to prevent confusion due to time zone crossing. See the SWA776 flight status page for this flight to view local times or setup timezone preferences in your user account.

Time Position Orientation Groundspeed Altitude Reporting Facility
EDT Latitude Longitude Course Direction KTS MPH feet Rate Location/Type
Sat 02:05:53 PM 33.4330 -111.9710 84° East 166 191 2,600  Level FlightAware ADS-B
Sat 02:06:35 PM 33.4360 -111.9280 85° East 200 230 4,000 1,652 Climbing FlightAware ADS-B
Sat 02:07:02 PM 33.4370 -111.9060 87° East 209 241 4,500 1,333 Climbing FlightAware ADS-B
Sat 02:07:29 PM 33.4140 -111.8840 141° Southeast 255 293 5,200 3,333 Climbing FlightAware ADS-B
Sat 02:08:41 PM 33.3810 -111.9760 247° West 291 335 10,000 3,526 Climbing FlightAware ADS-B
Sat 02:09:06 PM 33.3850 -112.0220 276° West 322 371 10,900 1,948 Climbing FlightAware ADS-B
Sat 02:09:58 PM 33.3930 -112.1050 277° West 359 413 12,500 2,400 Climbing FlightAware ADS-B
Sat 02:10:36 PM 33.4000 -112.1840 276° West 372 428 14,500 2,899 Climbing FlightAware ADS-B
Sat 02:11:27 PM 33.4080 -112.2880 275° West 391 450 16,800 2,643 Climbing FlightAware ADS-B
Sat 02:12:00 PM 33.4140 -112.3610 276° West 404 465 18,200 2,815 Climbing FlightAware ADS-B
Sat 02:12:48 PM 33.4240 -112.4700 276° West 411 473 20,600 2,935 Climbing FlightAware ADS-B
Sat 02:13:32 PM 33.4320 -112.5730 275° West 415 478 22,700 2,704 Climbing FlightAware ADS-B
Sat 02:13:59 PM 33.4380 -112.6350 277° West 420 483 23,800 2,348 Climbing FlightAware ADS-B
Sat 02:14:41 PM 33.4460 -112.7350 276° West 426 490 25,400 2,154 Climbing FlightAware ADS-B
Sat 02:15:17 PM 33.4530 -112.8170 276° West 433 498 26,600 1,853 Climbing FlightAware ADS-B
Sat 02:15:49 PM 33.4660 -112.8910 282° West 446 513 27,500 1,688 Climbing FlightAware ADS-B
Sat 02:16:21 PM 33.4810 -112.9670 283° West 453 521 28,400 1,739 Climbing FlightAware ADS-B
Sat 02:16:58 PM 33.5000 -113.0660 283° West 460 529 29,500 2,366 Climbing FlightAware ADS-B
Sat 02:17:32 PM 33.5190 -113.1670 283° West 450 518 31,200 2,960 Climbing FlightAware ADS-B
Sat 02:18:13 PM 33.5370 -113.2620 283° West 425 489 33,200 2,750 Climbing FlightAware ADS-B
Sat 02:18:44 PM 33.5510 -113.3340 283° West 413 475 34,500 1,974 Climbing FlightAware ADS-B
Sat 02:19:29 PM 33.5690 -113.4310 283° West 410 472 35,700 1,482 Climbing FlightAware ADS-B
Sat 02:20:09 PM 33.5860 -113.5190 283° West 409 471 36,600 1,280 Climbing FlightAware ADS-B
Sat 02:20:44 PM 33.6010 -113.5990 283° West 408 470 37,300 1,200 Climbing FlightAware ADS-B
Sat 02:21:14 PM 33.6130 -113.6640 283° West 406 467 37,900 636 Climbing FlightAware ADS-B
Sat 02:21:50 PM 33.6280 -113.7440 283° West 407 468 38,000 65 Climbing FlightAware ADS-B
Sat 02:22:46 PM 33.6500 -113.8650 282° West 406 467 38,000  Level FlightAware ADS-B
Sat 02:23:30 PM 33.6740 -113.9630 286° West 411 473 38,000  Level FlightAware ADS-B
Sat 02:24:29 PM 33.7000 -114.0630 287° West 411 473 38,000  Level FlightAware ADS-B
Sat 02:25:04 PM 33.7220 -114.1500 287° West 412 474 38,000  Level FlightAware ADS-B
Sat 02:25:42 PM 33.7440 -114.2400 286° West 411 473 38,000  Level FlightAware ADS-B
Sat 02:26:21 PM 33.7680 -114.3340 287° West 413 475 38,000  Level FlightAware ADS-B
Sat 02:26:42 PM 33.7780 -114.3770 286° West 413 475 38,000  Level FlightAware ADS-B
Sat 02:27:26 PM 33.8030 -114.4750 287° West 413 475 38,000  Level FlightAware ADS-B
Sat 02:28:31 PM 33.8380 -114.6200 286° West 416 479 38,000  Level FlightAware ADS-B
Sat 02:29:12 PM 33.8590 -114.7050 287° West 417 480 38,000  Level FlightAware ADS-B
Sat 02:29:41 PM 33.8770 -114.7770 287° West 417 480 38,000  Level FlightAware ADS-B
Sat 02:30:46 PM 33.9120 -114.9190 287° West 419 482 38,000  Level FlightAware ADS-B
Sat 02:31:26 PM 33.9340 -115.0090 286° West 421 484 38,000  Level FlightAware ADS-B
Sat 02:32:42 PM 33.9750 -115.1810 286° West 424 488 38,000  Level FlightAware ADS-B
Sat 02:33:16 PM 33.9930 -115.2570 286° West 425 489 38,000  Level FlightAware ADS-B
Sat 02:34:09 PM 34.0240 -115.3830 287° West 429 494 38,000  Level FlightAware ADS-B
Sat 02:35:16 PM 34.0600 -115.5350 286° West 431 496 38,000  Level FlightAware ADS-B
Sat 02:35:51 PM 34.0800 -115.6170 286° West 431 496 38,000  Level FlightAware ADS-B
Sat 02:36:36 PM 34.1040 -115.7190 286° West 432 497 38,000  Level FlightAware ADS-B
Sat 02:37:01 PM 34.1180 -115.7790 286° West 433 498 38,000  Level FlightAware ADS-B
Sat 02:37:32 PM 34.1340 -115.8490 285° West 433 498 38,000  Level FlightAware ADS-B
Sat 02:38:16 PM 34.1580 -115.9490 286° West 432 497 38,000  Level FlightAware ADS-B
Sat 02:38:46 PM 34.1730 -116.0140 286° West 432 497 38,000  Level FlightAware ADS-B
Sat 02:39:46 PM 34.2070 -116.1630 285° West 433 498 38,000  Level FlightAware ADS-B
Sat 02:40:41 PM 34.2370 -116.2900 286° West 432 497 38,000  Level FlightAware ADS-B
Sat 02:41:07 PM 34.2500 -116.3480 285° West 430 495 38,000  Level FlightAware ADS-B
Sat 02:41:41 PM 34.2680 -116.4250 286° West 428 493 38,000  Level FlightAware ADS-B
Sat 02:42:15 PM 34.2860 -116.5010 286° West 427 491 38,000  Level FlightAware ADS-B
Sat 02:43:18 PM 34.3200 -116.6510 285° West 428 493 38,000  Level FlightAware ADS-B
Sat 02:43:40 PM 34.3320 -116.7050 285° West 428 493 38,000  Level FlightAware ADS-B
Sat 02:44:46 PM 34.3660 -116.8570 285° West 430 495 38,000  Level FlightAware ADS-B
Sat 02:45:46 PM 34.3970 -116.9970 285° West 429 494 38,000  Level FlightAware ADS-B
Sat 02:46:25 PM 34.4180 -117.0870 286° West 431 496 38,000  Level FlightAware ADS-B
Sat 02:47:02 PM 34.4370 -117.1740 285° West 432 497 38,000  Level FlightAware ADS-B
Sat 02:47:36 PM 34.4550 -117.2530 285° West 433 498 38,000  Level FlightAware ADS-B
Sat 02:48:33 PM 34.4840 -117.3870 285° West 435 501 38,000  Level FlightAware ADS-B
Sat 02:49:38 PM 34.5180 -117.5390 285° West 436 502 38,000  Level FlightAware ADS-B
Sat 02:50:15 PM 34.5360 -117.6210 285° West 436 502 38,000  Level FlightAware ADS-B
Sat 02:51:07 PM 34.5640 -117.7490 285° West 436 502 38,000  Level FlightAware ADS-B
Sat 02:51:41 PM 34.5810 -117.8310 284° West 436 502 38,000  Level FlightAware ADS-B
Sat 02:52:07 PM 34.5940 -117.8910 285° West 436 502 38,000  Level FlightAware ADS-B
Sat 02:52:48 PM 34.6150 -117.9890 285° West 436 502 38,000  Level FlightAware ADS-B
Sat 02:53:22 PM 34.6350 -118.0670 287° West 440 506 38,000  Level FlightAware ADS-B
Sat 02:53:58 PM 34.6690 -118.1470 297° West 443 510 38,000  Level FlightAware ADS-B
Sat 02:54:26 PM 34.6970 -118.2080 299° West 443 510 38,000  Level FlightAware ADS-B
Sat 02:55:03 PM 34.7340 -118.2890 299° West 444 511 38,000  Level FlightAware ADS-B
Sat 02:55:38 PM 34.7690 -118.3660 299° West 444 511 38,000  Level FlightAware ADS-B
Sat 02:56:34 PM 34.8230 -118.4870 299° West 444 511 38,000  Level FlightAware ADS-B
Sat 02:57:39 PM 34.8870 -118.6270 299° West 443 510 38,000  Level FlightAware ADS-B
Sat 02:58:17 PM 34.9250 -118.7130 298° West 443 510 38,000  Level FlightAware ADS-B
Sat 02:58:50 PM 34.9570 -118.7850 298° West 443 510 38,000  Level FlightAware ADS-B
Sat 02:59:23 PM 34.9890 -118.8580 298° West 442 509 38,000  Level FlightAware ADS-B
Sat 02:59:56 PM 35.0210 -118.9290 299° West 441 507 38,000  Level FlightAware ADS-B
Sat 03:00:28 PM 35.0530 -119.0000 299° West 441 507 38,000  Level FlightAware ADS-B
Sat 03:01:24 PM 35.1070 -119.1230 298° West 440 506 38,000  Level FlightAware ADS-B
Sat 03:02:03 PM 35.1440 -119.2060 299° West 439 505 38,000  Level FlightAware ADS-B
Sat 03:02:28 PM 35.1680 -119.2610 298° West 439 505 38,000  Level FlightAware ADS-B
Sat 03:03:01 PM 35.2010 -119.3350 299° West 439 505 38,000  Level FlightAware ADS-B
Sat 03:03:41 PM 35.2380 -119.4200 298° West 439 505 38,000  Level FlightAware ADS-B
Sat 03:04:50 PM 35.3050 -119.5730 298° West 437 503 38,000  Level FlightAware ADS-B
Sat 03:05:44 PM 35.3560 -119.6890 298° West 437 503 38,000  Level FlightAware ADS-B
Sat 03:06:43 PM 35.4110 -119.8170 298° West 436 502 38,000  Level FlightAware ADS-B
Sat 03:07:16 PM 35.4430 -119.8900 298° West 435 501 38,000  Level FlightAware ADS-B
Sat 03:07:53 PM 35.4770 -119.9690 298° West 436 502 38,000  Level FlightAware ADS-B
Sat 03:08:27 PM 35.5100 -120.0450 298° West 435 501 38,000  Level FlightAware ADS-B
Sat 03:08:56 PM 35.5370 -120.1080 298° West 436 502 38,000  Level FlightAware ADS-B
Sat 03:09:51 PM 35.5890 -120.2290 298° West 438 504 38,000  Level FlightAware ADS-B
Sat 03:10:42 PM 35.6370 -120.3420 298° West 439 505 38,000  Level FlightAware ADS-B
Sat 03:11:02 PM 35.6570 -120.3870 299° West 439 505 38,000  Level FlightAware ADS-B
Sat 03:12:19 PM 35.7270 -120.5520 298° West 438 504 38,000  Level FlightAware ADS-B
Sat 03:13:12 PM 35.7740 -120.6640 297° West 436 502 38,000  Level FlightAware ADS-B
Sat 03:14:10 PM 35.8290 -120.7950 297° West 433 498 38,000  Level FlightAware ADS-B
Sat 03:15:10 PM 35.8850 -120.9270 298° West 428 493 38,000  Level FlightAware ADS-B
Sat 03:15:42 PM 35.9140 -120.9980 297° West 426 490 38,000 -964 Level FlightAware ADS-B
Sat 03:16:06 PM 35.9420 -121.0470 305° West 426 490 37,100 -2,400 Descending FlightAware ADS-B
Sat 03:16:47 PM 35.9990 -121.1150 316° Northwest 423 487 35,400 -2,416 Descending FlightAware ADS-B
Sat 03:17:23 PM 36.0490 -121.1710 318° Northwest 420 483 34,000 -2,471 Descending FlightAware ADS-B
Sat 03:17:55 PM 36.0950 -121.2230 318° Northwest 419 482 32,600 -2,644 Descending FlightAware ADS-B
Sat 03:18:22 PM 36.1360 -121.2700 317° Northwest 417 480 31,400 -2,516 Descending FlightAware ADS-B
Sat 03:18:57 PM 36.1860 -121.3250 318° Northwest 413 475 30,000 -2,375 Descending FlightAware ADS-B
Sat 03:19:58 PM 36.2690 -121.4200 317° Northwest 408 470 27,600 -2,312 Descending FlightAware ADS-B
Sat 03:20:46 PM 36.3350 -121.4950 318° Northwest 400 460 25,800 -2,147 Descending FlightAware ADS-B
Sat 03:21:33 PM 36.4010 -121.5690 318° Northwest 387 445 24,200 -1,962 Descending FlightAware ADS-B
Sat 03:22:30 PM 36.4720 -121.6510 317° Northwest 372 428 22,400 -1,841 Descending FlightAware ADS-B
Sat 03:23:01 PM 36.5090 -121.6930 318° Northwest 363 418 21,500 -1,548 Descending FlightAware ADS-B
Sat 03:24:03 PM 36.5850 -121.7800 317° Northwest 338 389 20,000 -1,023 Descending FlightAware ADS-B
Sat 03:24:29 PM 36.6150 -121.8140 318° Northwest 332 382 20,000 -766 Level FlightAware ADS-B
Sat 03:25:37 PM 36.6920 -121.9020 318° Northwest 336 387 18,800 -1,239 Descending FlightAware ADS-B
Sat 03:26:01 PM 36.7180 -121.9330 316° Northwest 332 382 18,100 -1,846 Descending FlightAware ADS-B
Sat 03:26:29 PM 36.7540 -121.9650 325° Northwest 336 387 17,200 -1,781 Descending FlightAware ADS-B
Sat 03:27:05 PM 36.8100 -121.9820 346° North 335 386 16,200 -1,688 Descending FlightAware ADS-B
Sat 03:28:05 PM 36.9010 -122.0050 349° North 325 374 14,500 -1,722 Descending FlightAware ADS-B
Sat 03:29:00 PM 36.9820 -122.0270 348° North 318 366 12,900 -1,697 Descending FlightAware ADS-B
Sat 03:29:44 PM 37.0450 -122.0430 349° North 310 357 11,700 -1,562 Descending FlightAware ADS-B
Sat 03:30:13 PM 37.0810 -122.0530 348° North 306 352 11,000 -1,186 Descending FlightAware ADS-B
Sat 03:31:10 PM 37.1630 -122.0740 348° North 289 333 10,000 -1,084 Descending FlightAware ADS-B
Sat 03:31:36 PM 37.1970 -122.0830 348° North 288 331 9,500 -1,294 Descending FlightAware ADS-B
Sat 03:32:01 PM 37.2300 -122.0920 348° North 287 330 8,900 -1,424 Descending FlightAware ADS-B
Sat 03:32:35 PM 37.2720 -122.1030 348° North 280 322 8,100 -1,385 Descending FlightAware ADS-B
Sat 03:33:19 PM 37.3270 -122.1180 348° North 272 313 7,100 -1,333 Descending FlightAware ADS-B
Sat 03:33:56 PM 37.3730 -122.1290 349° North 265 305 6,300 -1,292 Descending FlightAware ADS-B
Sat 03:34:24 PM 37.4060 -122.1380 348° North 259 298 5,700 -1,222 Descending FlightAware ADS-B
Sat 03:34:50 PM 37.4360 -122.1470 347° North 255 293 5,200 -915 Descending FlightAware ADS-B
Sat 03:35:23 PM 37.4730 -122.1570 348° North 239 275 4,800 -656 Descending FlightAware ADS-B
Sat 03:35:54 PM 37.5050 -122.1690 343° North 212 244 4,500 -462 Descending FlightAware ADS-B
Sat 03:36:28 PM 37.5280 -122.1900 324° Northwest 166 191 4,300 -794 Descending FlightAware ADS-B
Sat 03:37:02 PM 37.5430 -122.2140 308° West 146 168 3,600 -1,448 Descending FlightAware ADS-B
Sat 03:37:26 PM 37.5540 -122.2290 313° West 149 171 2,900 -1,700 Descending FlightAware ADS-B
Sat 03:38:02 PM 37.5700 -122.2530 310° West 145 167 1,900 -1,333 Descending FlightAware ADS-B
Sat 03:38:38 PM 37.5800 -122.2790 296° West 134 154 1,300 -779 Descending FlightAware ADS-B
Sat 03:39:19 PM 37.5920 -122.3070 298° West 130 150 900 -640 Descending FlightAware ADS-B
Sat 03:39:53 PM 37.6020 -122.3290 300° West 127 146 500 -676 Descending FlightAware ADS-B
Sat 03:40:30 PM 37.6120 -122.3530 298° West 124 143 100 -649 Descending FlightAware ADS-B
Sat 03:41:04 PM 37.6200 -122.3720 298° West 72 83 -176 Descending FlightAware ADS-B
Sat 03:41:29 PM 37.6230 -122.3800 295° West 72 83  Level FlightAware ADS-B
Sat 03:49:00 PM 37.6167 -122.3667 322° Northwest  Level FlightAware Approximate

Login

Don't have an account? Register now (free) for customized features, flight alerts, and more!